createdAt,value
2023-12-08T00:02:20.750Z,82.86
2023-12-08T00:04:47.449Z,84.36
2023-12-08T00:07:14.641Z,83.21
2023-12-08T00:09:41.460Z,82.53
2023-12-08T00:12:08.162Z,84.85
2023-12-08T00:14:34.968Z,82.60
2023-12-08T00:17:01.529Z,82.85
2023-12-08T00:19:28.236Z,83.85
2023-12-08T00:21:54.799Z,82.94
2023-12-08T00:24:21.457Z,84.54
2023-12-08T00:26:48.164Z,83.47
2023-12-08T00:29:15.070Z,84.59
2023-12-08T00:31:42.177Z,84.61
2023-12-08T00:34:09.171Z,84.34
2023-12-08T00:36:36.088Z,84.86
2023-12-08T00:39:02.933Z,84.90
2023-12-08T00:41:29.837Z,84.27
2023-12-08T00:43:56.455Z,83.84
2023-12-08T00:46:23.048Z,85.24
2023-12-08T00:48:49.865Z,85.47
2023-12-08T00:51:16.796Z,85.55
2023-12-08T00:53:43.751Z,84.43
2023-12-08T00:56:11.530Z,85.17
2023-12-08T00:58:38.760Z,84.17
2023-12-08T01:01:06.167Z,85.06
2023-12-08T01:03:33.111Z,85.34
2023-12-08T01:05:59.788Z,86.25
2023-12-08T01:08:26.410Z,84.65
2023-12-08T01:10:53.279Z,84.74
2023-12-08T01:13:20.994Z,84.52
2023-12-08T01:15:48.233Z,84.10
2023-12-08T01:18:15.052Z,83.98
2023-12-08T01:20:43.374Z,84.79
2023-12-08T01:23:10.072Z,86.18
2023-12-08T01:25:36.776Z,84.81
2023-12-08T01:28:03.472Z,84.29
2023-12-08T01:30:30.333Z,84.27
2023-12-08T01:32:57.285Z,85.87
2023-12-08T01:35:23.953Z,85.14
2023-12-08T01:37:50.678Z,84.97
2023-12-08T01:40:17.426Z,85.09
2023-12-08T01:42:45.912Z,84.84
2023-12-08T01:45:12.588Z,85.08
2023-12-08T01:47:40.984Z,85.92
2023-12-08T01:50:09.906Z,85.29
2023-12-08T01:52:37.821Z,84.31
2023-12-08T01:55:05.305Z,84.26
2023-12-08T01:57:32.330Z,84.07
2023-12-08T02:00:01.325Z,84.81
2023-12-08T02:02:28.483Z,85.17
2023-12-08T02:04:59.272Z,84.71
2023-12-08T02:07:27.452Z,84.66
2023-12-08T02:09:54.749Z,84.04
2023-12-08T02:12:21.741Z,85.11
2023-12-08T02:14:52.389Z,84.80
2023-12-08T02:17:26.421Z,85.39
2023-12-08T02:19:54.435Z,84.72
2023-12-08T02:22:24.514Z,84.31
2023-12-08T02:24:51.902Z,84.35
2023-12-08T02:27:18.712Z,84.77
2023-12-08T02:29:45.503Z,84.34
2023-12-08T02:32:24.050Z,84.64
2023-12-08T02:34:53.339Z,84.30
2023-12-08T02:37:21.460Z,84.50
2023-12-08T02:39:49.843Z,85.94
2023-12-08T02:42:16.698Z,84.86
2023-12-08T02:44:43.333Z,85.02
2023-12-08T02:47:09.950Z,85.38
2023-12-08T02:49:36.851Z,86.10
2023-12-08T02:52:03.832Z,86.20
2023-12-08T02:54:30.706Z,85.99
2023-12-08T02:56:57.483Z,86.81
2023-12-08T02:59:24.166Z,86.17
2023-12-08T03:02:35.306Z,86.91
2023-12-08T03:05:02.089Z,85.78
2023-12-08T03:07:29.256Z,85.23
2023-12-08T03:09:56.189Z,85.16
2023-12-08T03:12:22.996Z,87.63
2023-12-08T03:14:49.708Z,86.04
2023-12-08T03:17:16.955Z,86.64
2023-12-08T03:19:43.935Z,85.51
2023-12-08T03:22:13.202Z,86.28
2023-12-08T03:24:39.923Z,85.76
2023-12-08T03:27:06.651Z,87.19
2023-12-08T03:29:33.872Z,86.88
2023-12-08T03:32:00.676Z,87.49
2023-12-08T03:34:27.760Z,87.69
2023-12-08T03:36:54.524Z,89.30
2023-12-08T03:39:21.502Z,88.27
2023-12-08T03:41:48.151Z,88.50
2023-12-08T03:44:16.258Z,88.64
2023-12-08T03:46:45.677Z,89.12
2023-12-08T03:49:12.545Z,88.46
2023-12-08T03:51:39.166Z,87.45
2023-12-08T03:54:05.846Z,87.91
2023-12-08T03:56:32.465Z,91.62
2023-12-08T03:58:59.013Z,88.69
2023-12-08T04:01:27.458Z,88.98
2023-12-08T04:03:54.097Z,88.45
2023-12-08T04:06:21.049Z,88.11
2023-12-08T04:08:48.173Z,87.77
2023-12-08T04:11:14.815Z,88.67
2023-12-08T04:13:42.691Z,88.60
2023-12-08T04:16:09.637Z,87.85
2023-12-08T04:18:37.011Z,90.32
2023-12-08T04:21:03.932Z,88.86
2023-12-08T04:23:30.480Z,88.78
2023-12-08T04:25:58.839Z,88.91
2023-12-08T04:28:26.198Z,89.53
2023-12-08T04:30:53.032Z,89.22
2023-12-08T04:33:20.104Z,89.39
2023-12-08T04:35:46.834Z,89.03
2023-12-08T04:38:13.735Z,89.23
2023-12-08T04:40:40.612Z,89.85
2023-12-08T04:43:07.400Z,90.40
2023-12-08T04:45:34.024Z,90.06
2023-12-08T04:48:00.849Z,89.94
2023-12-08T04:50:27.972Z,91.30
2023-12-08T04:52:54.615Z,91.27
2023-12-08T04:55:21.202Z,91.72
2023-12-08T04:57:48.110Z,89.87
2023-12-08T05:00:14.998Z,92.05
2023-12-08T05:02:41.715Z,90.93
2023-12-08T05:05:08.506Z,91.35
2023-12-08T05:07:35.300Z,91.28
2023-12-08T05:10:02.099Z,91.16
2023-12-08T05:12:28.799Z,89.82
2023-12-08T05:14:55.447Z,90.03
2023-12-08T05:17:22.468Z,90.12
2023-12-08T05:19:49.281Z,89.93
2023-12-08T05:22:16.157Z,90.68
2023-12-08T05:24:42.795Z,90.01
2023-12-08T05:27:09.937Z,91.29
2023-12-08T05:29:36.771Z,90.67
2023-12-08T05:32:03.645Z,90.24
2023-12-08T05:34:30.487Z,91.53
2023-12-08T05:36:57.720Z,90.99
2023-12-08T05:39:24.400Z,90.94
2023-12-08T05:41:51.309Z,91.76
2023-12-08T05:44:17.928Z,90.46
2023-12-08T05:46:44.446Z,90.32
2023-12-08T05:49:11.422Z,91.57
2023-12-08T05:51:38.380Z,91.07
2023-12-08T05:54:05.074Z,90.81
2023-12-08T05:56:32.578Z,90.64
2023-12-08T05:58:59.202Z,92.34
2023-12-08T06:01:27.231Z,91.78
2023-12-08T06:03:53.956Z,92.06
2023-12-08T06:06:20.872Z,91.60
2023-12-08T06:08:47.860Z,91.59
2023-12-08T06:11:14.617Z,91.14
2023-12-08T06:13:41.519Z,91.13
2023-12-08T06:16:08.393Z,91.50
2023-12-08T06:18:35.100Z,91.43
2023-12-08T06:21:01.848Z,90.28
2023-12-08T06:23:28.656Z,93.04
2023-12-08T06:25:55.457Z,93.31
2023-12-08T06:28:22.177Z,91.90
2023-12-08T06:30:48.892Z,92.40
2023-12-08T06:33:15.560Z,91.16
2023-12-08T06:35:42.305Z,90.96
2023-12-08T06:38:09.369Z,91.33
2023-12-08T06:40:36.130Z,91.37
2023-12-08T06:43:04.410Z,91.29
2023-12-08T06:45:31.251Z,91.81
2023-12-08T06:48:00.244Z,92.23
2023-12-08T06:50:31.805Z,93.08
2023-12-08T06:52:58.652Z,92.79
2023-12-08T06:55:25.295Z,94.13
2023-12-08T06:57:52.180Z,93.48
2023-12-08T07:00:19.230Z,92.85
2023-12-08T07:02:46.422Z,93.04
2023-12-08T07:05:13.188Z,92.63
2023-12-08T07:07:39.816Z,91.44
2023-12-08T07:10:07.141Z,92.57
2023-12-08T07:12:34.308Z,91.95
2023-12-08T07:15:00.979Z,91.22
2023-12-08T07:17:28.550Z,91.96
2023-12-08T07:19:57.584Z,92.32
2023-12-08T07:22:24.434Z,90.92
2023-12-08T07:24:52.021Z,91.43
2023-12-08T07:27:18.710Z,91.60
2023-12-08T07:29:45.526Z,93.84
2023-12-08T07:32:12.223Z,93.30
2023-12-08T07:34:40.231Z,93.21
2023-12-08T07:39:48.027Z,93.91
2023-12-08T07:45:16.828Z,96.41
2023-12-08T07:47:45.774Z,95.96
2023-12-08T07:50:23.624Z,96.69
2023-12-08T07:52:53.252Z,97.18
2023-12-08T07:55:19.973Z,97.49
2023-12-08T07:57:49.853Z,98.16
2023-12-08T08:00:16.946Z,98.76
2023-12-08T08:02:44.577Z,98.28
2023-12-08T08:05:11.371Z,98.70
2023-12-08T08:07:38.306Z,98.89
2023-12-08T08:10:05.491Z,98.36
2023-12-08T08:12:33.610Z,99.03
2023-12-08T08:15:00.757Z,99.06
2023-12-08T08:17:27.561Z,98.39
2023-12-08T08:19:54.488Z,98.43
2023-12-08T08:22:30.129Z,98.19
2023-12-08T08:25:02.762Z,98.59
2023-12-08T08:27:30.939Z,99.21
2023-12-08T08:29:58.153Z,98.13
2023-12-08T08:32:24.943Z,97.99
2023-12-08T08:34:56.114Z,98.19
2023-12-08T08:37:26.611Z,97.99
2023-12-08T08:39:55.719Z,97.79
2023-12-08T08:42:57.433Z,97.51
2023-12-08T08:45:25.874Z,97.86
2023-12-08T08:48:06.530Z,98.81
2023-12-08T08:50:43.566Z,98.45
2023-12-08T08:53:15.884Z,97.67
2023-12-08T08:55:43.237Z,97.54
2023-12-08T08:58:09.850Z,97.44
2023-12-08T09:00:36.642Z,97.37
2023-12-08T09:03:04.700Z,97.98
2023-12-08T09:05:36.728Z,98.59
2023-12-08T09:08:07.619Z,98.89
2023-12-08T09:10:34.336Z,98.55
2023-12-08T09:13:01.382Z,99.67
2023-12-08T09:15:29.042Z,99.41
2023-12-08T09:17:57.499Z,98.60
2023-12-08T09:20:25.137Z,99.32
2023-12-08T09:23:00.513Z,98.96
2023-12-08T09:25:41.196Z,99.03
2023-12-08T09:28:10.472Z,99.10
2023-12-08T09:30:37.592Z,98.78
2023-12-08T09:33:05.992Z,99.37
2023-12-08T09:35:34.602Z,99.19
2023-12-08T09:38:01.517Z,99.60
2023-12-08T09:40:29.173Z,99.21
2023-12-08T09:43:07.829Z,99.41
2023-12-08T09:45:35.628Z,98.85
2023-12-08T09:48:07.630Z,98.85
2023-12-08T09:50:37.656Z,98.00
2023-12-08T09:53:09.241Z,98.62
2023-12-08T09:55:39.553Z,99.07
2023-12-08T09:58:08.339Z,98.94
2023-12-08T10:00:43.763Z,98.79
2023-12-08T10:03:13.957Z,98.91
2023-12-08T10:05:50.893Z,99.03
2023-12-08T10:08:39.219Z,98.68
2023-12-08T10:11:09.724Z,98.85
2023-12-08T10:13:36.708Z,98.75
2023-12-08T10:18:46.414Z,98.61
2023-12-08T10:24:05.816Z,98.77
2023-12-08T10:26:36.109Z,98.71
2023-12-08T10:29:02.977Z,98.17
2023-12-08T10:31:29.817Z,98.98
2023-12-08T10:34:01.131Z,99.34
2023-12-08T10:36:28.182Z,99.00
2023-12-08T10:38:55.033Z,98.67
2023-12-08T10:41:22.530Z,98.52
2023-12-08T10:43:54.755Z,98.35
2023-12-08T10:46:22.684Z,99.06
2023-12-08T10:48:50.289Z,99.04
2023-12-08T10:51:19.271Z,99.24
2023-12-08T10:53:46.477Z,98.74
2023-12-08T10:56:17.163Z,99.04
2023-12-08T10:58:46.251Z,99.14
2023-12-08T11:01:15.940Z,99.02
2023-12-08T11:03:53.962Z,99.28
2023-12-08T11:06:31.042Z,99.47
2023-12-08T11:09:05.037Z,99.23
2023-12-08T11:11:35.493Z,99.48
2023-12-08T11:14:07.197Z,99.34
2023-12-08T11:16:41.917Z,99.31
2023-12-08T11:19:36.915Z,98.95
2023-12-08T11:22:18.726Z,99.31
2023-12-08T11:24:49.412Z,98.87
2023-12-08T11:27:29.128Z,98.94
2023-12-08T11:30:47.263Z,98.91
2023-12-08T11:33:40.465Z,99.20
2023-12-08T11:36:31.339Z,98.75
2023-12-08T11:38:57.909Z,98.88
2023-12-08T11:41:26.534Z,99.19
2023-12-08T11:43:53.737Z,99.28
2023-12-08T11:46:20.417Z,99.45
2023-12-08T11:48:50.048Z,99.98
2023-12-08T11:51:17.373Z,99.77
2023-12-08T11:54:00.371Z,99.49
2023-12-08T11:56:47.524Z,99.60
2023-12-08T11:59:24.997Z,99.77
2023-12-08T12:01:52.340Z,99.50
2023-12-08T12:04:19.329Z,99.65
2023-12-08T12:06:54.952Z,99.86
2023-12-08T12:09:22.322Z,99.45
2023-12-08T12:11:53.160Z,99.95
2023-12-08T12:14:26.049Z,100.00
2023-12-08T12:16:53.196Z,100.00
2023-12-08T12:19:25.562Z,99.95
2023-12-08T12:21:52.611Z,100.00
2023-12-08T12:24:19.278Z,100.00
2023-12-08T12:26:46.259Z,100.00
2023-12-08T12:29:15.522Z,100.00
2023-12-08T12:31:44.101Z,100.00
2023-12-08T12:34:12.390Z,100.00
2023-12-08T12:36:40.020Z,100.00
2023-12-08T12:39:07.282Z,100.00
2023-12-08T12:41:34.384Z,100.00
2023-12-08T12:44:03.086Z,100.00
2023-12-08T12:46:32.684Z,100.00
2023-12-08T12:48:59.962Z,100.00
2023-12-08T12:51:38.175Z,100.00
2023-12-08T12:54:05.461Z,100.00
2023-12-08T12:56:33.890Z,100.00
2023-12-08T12:59:12.551Z,100.00
2023-12-08T13:05:47.072Z,100.00
2023-12-08T13:08:16.988Z,100.00
2023-12-08T13:10:47.136Z,100.00
2023-12-08T13:13:52.440Z,100.00
2023-12-08T13:16:48.182Z,100.00
2023-12-08T13:20:40.744Z,100.00
2023-12-08T13:23:11.705Z,100.00
2023-12-08T13:28:45.054Z,100.00
2023-12-08T13:31:17.166Z,100.00
2023-12-08T13:33:59.238Z,100.00
2023-12-08T13:36:30.717Z,100.00
2023-12-08T13:41:53.285Z,100.00
2023-12-08T13:44:21.101Z,100.00
2023-12-08T13:47:01.395Z,100.00
2023-12-08T13:49:38.397Z,100.00
2023-12-08T13:53:08.452Z,100.00
2023-12-08T13:55:39.303Z,100.00
2023-12-08T13:58:33.844Z,100.00
2023-12-08T14:12:13.125Z,100.00
2023-12-08T14:28:36.193Z,100.00
2023-12-08T14:34:57.463Z,100.00
2023-12-08T14:40:45.638Z,100.00
2023-12-08T14:44:02.668Z,100.00
2023-12-08T14:46:46.858Z,100.00
2023-12-08T15:01:52.532Z,100.00
2023-12-08T15:08:44.877Z,100.00
2023-12-08T15:11:11.773Z,100.00
2023-12-08T15:16:31.787Z,100.00
2023-12-08T15:19:12.594Z,100.00
2023-12-08T15:21:40.520Z,100.00
2023-12-08T15:24:10.201Z,100.00
2023-12-08T15:26:41.689Z,100.00
2023-12-08T15:29:11.804Z,100.00
2023-12-08T15:31:40.289Z,100.00
2023-12-08T15:34:07.599Z,100.00
2023-12-08T15:36:34.837Z,100.00
2023-12-08T15:39:01.830Z,100.00
2023-12-08T15:41:33.276Z,100.00
2023-12-08T15:43:59.858Z,100.00
2023-12-08T15:46:26.414Z,100.00
2023-12-08T15:48:53.326Z,100.00
2023-12-08T15:51:20.598Z,100.00
2023-12-08T15:53:47.898Z,100.00
2023-12-08T15:56:14.885Z,100.00
2023-12-08T15:58:46.709Z,100.00
2023-12-08T16:01:21.078Z,100.00
2023-12-08T16:09:45.601Z,100.00
2023-12-08T16:12:13.004Z,100.00
2023-12-08T16:14:42.469Z,100.00
2023-12-08T16:17:09.304Z,100.00
2023-12-08T16:19:35.987Z,100.00
2023-12-08T16:22:02.903Z,100.00
2023-12-08T16:24:29.743Z,100.00
2023-12-08T16:26:59.197Z,100.00
2023-12-08T16:29:26.030Z,100.00
2023-12-08T16:31:52.736Z,100.00
2023-12-08T16:34:19.557Z,100.00
2023-12-08T16:36:46.939Z,100.00
2023-12-08T16:39:16.568Z,100.00
2023-12-08T16:41:48.678Z,100.00
2023-12-08T16:44:15.900Z,100.00
2023-12-08T16:46:42.758Z,100.00
2023-12-08T16:49:11.041Z,100.00
2023-12-08T16:51:38.169Z,100.00
2023-12-08T16:54:05.310Z,100.00
2023-12-08T16:56:34.839Z,100.00
2023-12-08T17:05:11.238Z,100.00
2023-12-08T17:31:07.021Z,100.00
2023-12-08T17:33:33.830Z,100.00
2023-12-08T17:36:00.928Z,100.00
2023-12-08T17:38:30.452Z,100.00
2023-12-08T17:40:57.202Z,100.00
2023-12-08T17:43:24.514Z,100.00
2023-12-08T17:45:53.949Z,100.00
2023-12-08T17:48:20.658Z,100.00
2023-12-08T17:50:48.365Z,100.00
2023-12-08T17:53:15.003Z,100.00
2023-12-08T17:55:41.815Z,100.00
2023-12-08T17:58:08.441Z,100.00
2023-12-08T18:00:35.302Z,100.00
2023-12-08T18:03:04.332Z,100.00
2023-12-08T18:05:31.296Z,100.00
2023-12-08T18:07:58.016Z,100.00
2023-12-08T18:10:24.805Z,100.00
2023-12-08T18:12:51.806Z,100.00
2023-12-08T18:15:19.034Z,100.00
2023-12-08T18:17:46.165Z,99.79
2023-12-08T18:20:14.082Z,100.00
2023-12-08T18:22:41.485Z,100.00
2023-12-08T18:25:11.173Z,100.00
2023-12-08T18:27:52.874Z,100.00
2023-12-08T18:30:25.333Z,100.00
2023-12-08T18:32:52.164Z,100.00
2023-12-08T18:35:19.087Z,100.00
2023-12-08T18:37:46.536Z,99.73
2023-12-08T18:40:13.946Z,100.00
2023-12-08T18:42:40.784Z,100.00
2023-12-08T18:45:08.238Z,99.88
2023-12-08T18:47:34.977Z,100.00
2023-12-08T18:50:02.085Z,99.81
2023-12-08T18:52:29.336Z,99.60
2023-12-08T18:54:56.769Z,99.46
2023-12-08T18:57:23.842Z,99.66
2023-12-08T18:59:50.654Z,100.00
2023-12-08T19:02:17.260Z,99.54
2023-12-08T19:04:44.523Z,99.74
2023-12-08T19:07:11.175Z,99.93
2023-12-08T19:09:38.480Z,99.90
2023-12-08T19:12:05.643Z,99.91
2023-12-08T19:14:32.715Z,100.00
2023-12-08T19:16:59.366Z,99.28
2023-12-08T19:19:26.391Z,99.60
2023-12-08T19:21:53.563Z,99.47
2023-12-08T19:24:20.338Z,99.26
2023-12-08T19:26:47.205Z,99.12
2023-12-08T19:29:13.860Z,99.30
2023-12-08T19:31:40.580Z,99.64
2023-12-08T19:34:07.555Z,99.45
2023-12-08T19:36:34.290Z,99.43
2023-12-08T19:39:01.303Z,98.96
2023-12-08T19:41:28.299Z,99.11
2023-12-08T19:43:55.873Z,99.59
2023-12-08T19:46:22.637Z,99.57
2023-12-08T19:48:49.543Z,98.86
2023-12-08T19:51:16.273Z,99.00
2023-12-08T19:53:43.114Z,99.06
2023-12-08T19:56:10.251Z,99.06
2023-12-08T19:58:38.301Z,98.88
2023-12-08T20:01:06.818Z,98.91
2023-12-08T20:03:33.669Z,99.43
2023-12-08T20:06:00.695Z,98.81
2023-12-08T20:08:28.311Z,98.79
2023-12-08T20:10:57.856Z,99.33
2023-12-08T20:13:24.704Z,98.73
2023-12-08T20:15:51.429Z,98.56
2023-12-08T20:18:18.212Z,99.02
2023-12-08T20:20:44.972Z,98.89
2023-12-08T20:23:14.837Z,98.40
2023-12-08T20:25:41.616Z,98.92
2023-12-08T20:28:09.598Z,98.59
2023-12-08T20:30:36.737Z,98.54
2023-12-08T20:33:03.708Z,98.63
2023-12-08T20:35:30.692Z,98.47
2023-12-08T20:37:57.529Z,98.81
2023-12-08T20:40:24.265Z,98.35
2023-12-08T20:42:51.128Z,98.27
2023-12-08T20:45:17.972Z,97.96
2023-12-08T20:47:45.401Z,98.24
2023-12-08T20:50:12.900Z,98.24
2023-12-08T20:52:39.992Z,97.93
2023-12-08T20:55:06.943Z,98.25
2023-12-08T20:57:33.785Z,98.01
2023-12-08T21:00:00.697Z,97.95
2023-12-08T21:02:27.619Z,97.77
2023-12-08T21:04:54.446Z,97.84
2023-12-08T21:07:21.230Z,97.19
2023-12-08T21:09:48.031Z,96.85
2023-12-08T21:12:14.759Z,96.61
2023-12-08T21:14:41.451Z,96.68
2023-12-08T21:17:08.186Z,97.09
2023-12-08T21:19:35.140Z,96.36
2023-12-08T21:22:04.014Z,96.40
2023-12-08T21:24:31.203Z,96.18
2023-12-08T21:26:58.721Z,96.78
2023-12-08T21:29:25.669Z,96.35
2023-12-08T21:31:53.128Z,96.40
2023-12-08T21:34:20.188Z,96.74
2023-12-08T21:36:46.991Z,97.04
2023-12-08T21:39:13.956Z,97.00
2023-12-08T21:41:40.919Z,97.62
2023-12-08T21:44:08.025Z,96.81
2023-12-08T21:46:35.612Z,96.38
2023-12-08T21:49:25.728Z,96.76
2023-12-08T21:51:52.678Z,96.49
2023-12-08T21:54:21.218Z,96.77
2023-12-08T21:56:48.087Z,97.06
2023-12-08T21:59:15.125Z,96.35
2023-12-08T22:08:56.464Z,97.20
2023-12-08T22:11:23.348Z,96.78
2023-12-08T22:13:50.116Z,97.22
2023-12-08T22:16:16.799Z,97.24
2023-12-08T22:18:43.869Z,96.36
2023-12-08T22:21:13.611Z,96.29
2023-12-08T22:23:41.121Z,96.65
2023-12-08T22:26:09.852Z,96.05
2023-12-08T22:28:37.098Z,96.15
2023-12-08T22:31:24.434Z,96.39
2023-12-08T22:33:51.893Z,95.92
2023-12-08T22:36:18.866Z,96.03
2023-12-08T22:38:45.775Z,96.11
2023-12-08T22:41:12.448Z,96.12
2023-12-08T22:43:39.882Z,96.52
2023-12-08T22:46:10.062Z,96.77
2023-12-08T22:48:40.444Z,96.12
2023-12-08T22:51:14.432Z,96.80
2023-12-08T22:53:44.817Z,96.92
2023-12-08T22:56:12.528Z,97.02
2023-12-08T23:01:40.068Z,97.40
2023-12-08T23:04:12.697Z,97.40
2023-12-08T23:06:40.158Z,97.41
2023-12-08T23:11:49.275Z,97.73
2023-12-08T23:14:16.023Z,97.78
2023-12-08T23:16:51.001Z,97.99
2023-12-08T23:19:19.591Z,98.77
2023-12-08T23:21:46.491Z,98.31
2023-12-08T23:24:13.212Z,98.64
2023-12-08T23:26:45.716Z,98.41
2023-12-08T23:37:25.834Z,98.33
2023-12-08T23:42:33.678Z,97.99
2023-12-08T23:45:00.954Z,97.36
2023-12-08T23:47:28.074Z,97.01
2023-12-08T23:49:54.920Z,97.23
2023-12-08T23:52:22.237Z,98.10
2023-12-08T23:54:48.988Z,97.99
